sensor_id;sensor_type;location;lat;lon;timestamp;P1;durP1;ratioP1;P2;durP2;ratioP2
75234;SDS011;63817;51.228;-1.472;2023-07-13T00:01:14;14.27;;;3.53;;
75234;SDS011;63817;51.228;-1.472;2023-07-13T00:03:40;11.77;;;3.50;;
75234;SDS011;63817;51.228;-1.472;2023-07-13T00:06:06;10.10;;;4.00;;
75234;SDS011;63817;51.228;-1.472;2023-07-13T00:08:32;11.45;;;3.58;;
75234;SDS011;63817;51.228;-1.472;2023-07-13T00:10:59;9.93;;;3.95;;
75234;SDS011;63817;51.228;-1.472;2023-07-13T00:13:28;10.77;;;3.70;;
75234;SDS011;63817;51.228;-1.472;2023-07-13T00:15:54;11.80;;;3.70;;
75234;SDS011;63817;51.228;-1.472;2023-07-13T00:18:20;12.73;;;3.42;;
75234;SDS011;63817;51.228;-1.472;2023-07-13T00:20:46;15.63;;;4.25;;
75234;SDS011;63817;51.228;-1.472;2023-07-13T00:23:11;9.25;;;3.20;;
75234;SDS011;63817;51.228;-1.472;2023-07-13T00:25:37;14.88;;;3.85;;
75234;SDS011;63817;51.228;-1.472;2023-07-13T00:28:02;10.95;;;3.97;;
75234;SDS011;63817;51.228;-1.472;2023-07-13T00:30:28;10.18;;;3.83;;
75234;SDS011;63817;51.228;-1.472;2023-07-13T00:32:53;13.10;;;4.15;;
75234;SDS011;63817;51.228;-1.472;2023-07-13T00:35:19;12.10;;;3.90;;
75234;SDS011;63817;51.228;-1.472;2023-07-13T00:37:44;16.15;;;4.32;;
75234;SDS011;63817;51.228;-1.472;2023-07-13T00:40:13;13.88;;;4.78;;
75234;SDS011;63817;51.228;-1.472;2023-07-13T00:42:39;16.65;;;4.28;;
75234;SDS011;63817;51.228;-1.472;2023-07-13T00:47:36;12.68;;;3.95;;
75234;SDS011;63817;51.228;-1.472;2023-07-13T00:50:02;12.50;;;4.20;;
75234;SDS011;63817;51.228;-1.472;2023-07-13T00:52:29;13.15;;;4.15;;
75234;SDS011;63817;51.228;-1.472;2023-07-13T00:54:55;16.58;;;3.72;;
75234;SDS011;63817;51.228;-1.472;2023-07-13T00:57:21;15.70;;;4.25;;
75234;SDS011;63817;51.228;-1.472;2023-07-13T00:59:48;13.40;;;3.55;;
75234;SDS011;63817;51.228;-1.472;2023-07-13T01:02:17;14.88;;;3.90;;
75234;SDS011;63817;51.228;-1.472;2023-07-13T01:04:43;14.80;;;4.43;;
75234;SDS011;63817;51.228;-1.472;2023-07-13T01:07:09;17.15;;;4.50;;
75234;SDS011;63817;51.228;-1.472;2023-07-13T01:09:36;8.40;;;3.85;;
75234;SDS011;63817;51.228;-1.472;2023-07-13T01:12:01;11.27;;;4.05;;
75234;SDS011;63817;51.228;-1.472;2023-07-13T01:14:28;19.33;;;4.18;;
75234;SDS011;63817;51.228;-1.472;2023-07-13T01:16:53;12.13;;;4.22;;
75234;SDS011;63817;51.228;-1.472;2023-07-13T01:24:37;14.43;;;4.40;;
75234;SDS011;63817;51.228;-1.472;2023-07-13T01:27:03;11.77;;;4.10;;
75234;SDS011;63817;51.228;-1.472;2023-07-13T01:29:31;11.73;;;3.70;;
75234;SDS011;63817;51.228;-1.472;2023-07-13T01:31:57;9.98;;;3.42;;
75234;SDS011;63817;51.228;-1.472;2023-07-13T01:34:23;15.65;;;4.53;;
75234;SDS011;63817;51.228;-1.472;2023-07-13T01:36:48;16.23;;;3.75;;
75234;SDS011;63817;51.228;-1.472;2023-07-13T01:39:14;9.60;;;3.63;;
75234;SDS011;63817;51.228;-1.472;2023-07-13T01:41:40;21.23;;;3.95;;
75234;SDS011;63817;51.228;-1.472;2023-07-13T01:44:06;11.95;;;3.33;;
75234;SDS011;63817;51.228;-1.472;2023-07-13T01:46:31;11.85;;;3.88;;
75234;SDS011;63817;51.228;-1.472;2023-07-13T01:48:56;16.00;;;4.00;;
75234;SDS011;63817;51.228;-1.472;2023-07-13T01:51:22;9.52;;;3.90;;
75234;SDS011;63817;51.228;-1.472;2023-07-13T01:53:47;11.35;;;3.88;;
75234;SDS011;63817;51.228;-1.472;2023-07-13T01:56:13;12.98;;;3.83;;
75234;SDS011;63817;51.228;-1.472;2023-07-13T01:58:38;12.00;;;3.38;;
75234;SDS011;63817;51.228;-1.472;2023-07-13T02:01:03;10.32;;;4.20;;
75234;SDS011;63817;51.228;-1.472;2023-07-13T02:03:29;8.93;;;3.47;;
75234;SDS011;63817;51.228;-1.472;2023-07-13T02:05:54;11.05;;;4.15;;
75234;SDS011;63817;51.228;-1.472;2023-07-13T02:08:20;11.10;;;3.10;;
75234;SDS011;63817;51.228;-1.472;2023-07-13T02:10:45;9.02;;;4.00;;
75234;SDS011;63817;51.228;-1.472;2023-07-13T02:13:10;10.45;;;3.55;;
75234;SDS011;63817;51.228;-1.472;2023-07-13T02:15:39;5.22;;;3.40;;
75234;SDS011;63817;51.228;-1.472;2023-07-13T02:18:08;9.55;;;3.72;;
75234;SDS011;63817;51.228;-1.472;2023-07-13T02:20:33;14.05;;;4.07;;
75234;SDS011;63817;51.228;-1.472;2023-07-13T02:22:58;11.82;;;3.65;;
75234;SDS011;63817;51.228;-1.472;2023-07-13T02:25:24;13.93;;;3.20;;
75234;SDS011;63817;51.228;-1.472;2023-07-13T02:27:51;9.38;;;3.70;;
75234;SDS011;63817;51.228;-1.472;2023-07-13T02:30:17;7.07;;;3.47;;
75234;SDS011;63817;51.228;-1.472;2023-07-13T02:32:43;9.70;;;3.30;;
75234;SDS011;63817;51.228;-1.472;2023-07-13T02:35:09;9.27;;;3.08;;
75234;SDS011;63817;51.228;-1.472;2023-07-13T02:37:34;13.90;;;3.90;;
75234;SDS011;63817;51.228;-1.472;2023-07-13T02:40:00;9.63;;;3.40;;
75234;SDS011;63817;51.228;-1.472;2023-07-13T02:42:29;7.90;;;3.30;;
75234;SDS011;63817;51.228;-1.472;2023-07-13T02:44:54;9.48;;;4.18;;
75234;SDS011;63817;51.228;-1.472;2023-07-13T02:47:20;16.50;;;4.75;;
75234;SDS011;63817;51.228;-1.472;2023-07-13T02:49:45;7.55;;;3.70;;
75234;SDS011;63817;51.228;-1.472;2023-07-13T02:52:11;9.07;;;3.40;;
75234;SDS011;63817;51.228;-1.472;2023-07-13T02:54:36;10.20;;;3.45;;
75234;SDS011;63817;51.228;-1.472;2023-07-13T02:57:01;5.80;;;3.22;;
75234;SDS011;63817;51.228;-1.472;2023-07-13T02:59:27;8.27;;;3.55;;
75234;SDS011;63817;51.228;-1.472;2023-07-13T03:01:52;10.30;;;3.63;;
75234;SDS011;63817;51.228;-1.472;2023-07-13T03:04:18;6.88;;;3.55;;
75234;SDS011;63817;51.228;-1.472;2023-07-13T03:06:44;7.70;;;3.63;;
75234;SDS011;63817;51.228;-1.472;2023-07-13T03:09:10;8.95;;;3.50;;
75234;SDS011;63817;51.228;-1.472;2023-07-13T03:11:35;7.18;;;3.40;;
75234;SDS011;63817;51.228;-1.472;2023-07-13T03:14:00;9.18;;;3.50;;
75234;SDS011;63817;51.228;-1.472;2023-07-13T03:16:26;13.10;;;4.45;;
75234;SDS011;63817;51.228;-1.472;2023-07-13T03:18:51;12.50;;;4.40;;
75234;SDS011;63817;51.228;-1.472;2023-07-13T03:21:17;9.55;;;3.33;;
75234;SDS011;63817;51.228;-1.472;2023-07-13T03:23:42;14.02;;;3.72;;
75234;SDS011;63817;51.228;-1.472;2023-07-13T03:26:09;11.52;;;4.25;;
75234;SDS011;63817;51.228;-1.472;2023-07-13T03:28:36;12.13;;;3.83;;
75234;SDS011;63817;51.228;-1.472;2023-07-13T03:31:03;7.95;;;3.25;;
75234;SDS011;63817;51.228;-1.472;2023-07-13T03:33:33;12.40;;;3.85;;
75234;SDS011;63817;51.228;-1.472;2023-07-13T03:35:59;9.25;;;3.38;;
75234;SDS011;63817;51.228;-1.472;2023-07-13T03:38:25;12.52;;;3.78;;
75234;SDS011;63817;51.228;-1.472;2023-07-13T03:40:51;12.05;;;3.28;;
75234;SDS011;63817;51.228;-1.472;2023-07-13T03:43:16;9.68;;;3.20;;
75234;SDS011;63817;51.228;-1.472;2023-07-13T03:45:42;14.57;;;3.78;;
75234;SDS011;63817;51.228;-1.472;2023-07-13T03:48:07;7.30;;;3.33;;
75234;SDS011;63817;51.228;-1.472;2023-07-13T03:50:33;10.23;;;3.05;;
75234;SDS011;63817;51.228;-1.472;2023-07-13T03:52:58;6.82;;;3.47;;
75234;SDS011;63817;51.228;-1.472;2023-07-13T03:55:24;8.13;;;3.45;;
75234;SDS011;63817;51.228;-1.472;2023-07-13T03:57:57;10.13;;;3.40;;
75234;SDS011;63817;51.228;-1.472;2023-07-13T04:00:32;12.57;;;3.22;;
75234;SDS011;63817;51.228;-1.472;2023-07-13T04:02:57;13.85;;;3.67;;
75234;SDS011;63817;51.228;-1.472;2023-07-13T04:05:22;12.65;;;3.78;;
75234;SDS011;63817;51.228;-1.472;2023-07-13T04:07:48;9.10;;;3.15;;
75234;SDS011;63817;51.228;-1.472;2023-07-13T04:10:13;16.00;;;4.70;;
75234;SDS011;63817;51.228;-1.472;2023-07-13T04:12:39;10.75;;;3.13;;
75234;SDS011;63817;51.228;-1.472;2023-07-13T04:15:04;8.20;;;3.47;;
75234;SDS011;63817;51.228;-1.472;2023-07-13T04:17:30;9.98;;;3.08;;
75234;SDS011;63817;51.228;-1.472;2023-07-13T04:19:55;8.32;;;3.10;;
75234;SDS011;63817;51.228;-1.472;2023-07-13T04:22:21;9.43;;;3.00;;
75234;SDS011;63817;51.228;-1.472;2023-07-13T04:24:46;7.88;;;3.60;;
75234;SDS011;63817;51.228;-1.472;2023-07-13T04:27:12;13.77;;;4.45;;
75234;SDS011;63817;51.228;-1.472;2023-07-13T04:29:37;7.28;;;3.40;;
75234;SDS011;63817;51.228;-1.472;2023-07-13T04:32:02;8.45;;;4.20;;
75234;SDS011;63817;51.228;-1.472;2023-07-13T04:34:28;9.75;;;3.90;;
75234;SDS011;63817;51.228;-1.472;2023-07-13T04:36:53;7.93;;;3.88;;
75234;SDS011;63817;51.228;-1.472;2023-07-13T04:39:19;8.57;;;3.83;;
75234;SDS011;63817;51.228;-1.472;2023-07-13T04:41:45;11.23;;;4.47;;
75234;SDS011;63817;51.228;-1.472;2023-07-13T04:44:10;15.25;;;3.88;;
75234;SDS011;63817;51.228;-1.472;2023-07-13T04:46:36;11.40;;;3.45;;
75234;SDS011;63817;51.228;-1.472;2023-07-13T04:49:03;13.50;;;4.57;;
75234;SDS011;63817;51.228;-1.472;2023-07-13T04:51:28;10.63;;;4.13;;
75234;SDS011;63817;51.228;-1.472;2023-07-13T04:53:54;8.30;;;3.08;;
75234;SDS011;63817;51.228;-1.472;2023-07-13T04:56:20;6.72;;;3.20;;
75234;SDS011;63817;51.228;-1.472;2023-07-13T04:58:45;9.13;;;3.65;;
75234;SDS011;63817;51.228;-1.472;2023-07-13T05:01:10;7.43;;;4.03;;
75234;SDS011;63817;51.228;-1.472;2023-07-13T05:03:36;8.40;;;3.30;;
75234;SDS011;63817;51.228;-1.472;2023-07-13T05:06:03;9.25;;;3.63;;
75234;SDS011;63817;51.228;-1.472;2023-07-13T05:08:29;9.40;;;3.47;;
75234;SDS011;63817;51.228;-1.472;2023-07-13T05:10:55;8.50;;;3.75;;
75234;SDS011;63817;51.228;-1.472;2023-07-13T05:13:21;11.40;;;3.95;;
75234;SDS011;63817;51.228;-1.472;2023-07-13T05:15:47;12.18;;;3.35;;
75234;SDS011;63817;51.228;-1.472;2023-07-13T05:21:07;11.65;;;3.38;;
75234;SDS011;63817;51.228;-1.472;2023-07-13T05:23:34;8.35;;;3.55;;
75234;SDS011;63817;51.228;-1.472;2023-07-13T05:26:00;9.02;;;3.10;;
75234;SDS011;63817;51.228;-1.472;2023-07-13T05:28:26;14.27;;;4.03;;
75234;SDS011;63817;51.228;-1.472;2023-07-13T05:30:52;11.93;;;3.88;;
75234;SDS011;63817;51.228;-1.472;2023-07-13T05:33:19;7.05;;;3.50;;
75234;SDS011;63817;51.228;-1.472;2023-07-13T05:35:44;13.75;;;4.45;;
75234;SDS011;63817;51.228;-1.472;2023-07-13T05:38:10;10.85;;;3.45;;
75234;SDS011;63817;51.228;-1.472;2023-07-13T05:40:35;9.40;;;3.58;;
75234;SDS011;63817;51.228;-1.472;2023-07-13T05:43:00;9.05;;;4.18;;
75234;SDS011;63817;51.228;-1.472;2023-07-13T05:45:26;10.98;;;3.50;;
75234;SDS011;63817;51.228;-1.472;2023-07-13T05:47:51;16.10;;;4.00;;
75234;SDS011;63817;51.228;-1.472;2023-07-13T05:50:17;11.00;;;3.47;;
75234;SDS011;63817;51.228;-1.472;2023-07-13T05:52:42;7.88;;;3.05;;
75234;SDS011;63817;51.228;-1.472;2023-07-13T05:55:08;13.63;;;3.53;;
75234;SDS011;63817;51.228;-1.472;2023-07-13T05:57:33;22.77;;;3.58;;
75234;SDS011;63817;51.228;-1.472;2023-07-13T05:59:59;9.52;;;2.70;;
75234;SDS011;63817;51.228;-1.472;2023-07-13T06:02:24;8.18;;;3.40;;
75234;SDS011;63817;51.228;-1.472;2023-07-13T06:04:51;8.20;;;2.55;;
75234;SDS011;63817;51.228;-1.472;2023-07-13T06:07:16;10.35;;;2.78;;
75234;SDS011;63817;51.228;-1.472;2023-07-13T06:09:42;20.52;;;3.38;;
75234;SDS011;63817;51.228;-1.472;2023-07-13T06:12:07;12.75;;;3.22;;
75234;SDS011;63817;51.228;-1.472;2023-07-13T06:14:33;12.23;;;3.00;;
75234;SDS011;63817;51.228;-1.472;2023-07-13T06:16:59;13.48;;;3.35;;
75234;SDS011;63817;51.228;-1.472;2023-07-13T06:19:24;16.08;;;3.20;;
75234;SDS011;63817;51.228;-1.472;2023-07-13T06:21:49;11.35;;;3.10;;
75234;SDS011;63817;51.228;-1.472;2023-07-13T06:24:15;6.88;;;2.67;;
75234;SDS011;63817;51.228;-1.472;2023-07-13T06:26:40;10.52;;;3.08;;
75234;SDS011;63817;51.228;-1.472;2023-07-13T06:29:06;14.32;;;3.45;;
75234;SDS011;63817;51.228;-1.472;2023-07-13T06:31:31;10.20;;;3.28;;
75234;SDS011;63817;51.228;-1.472;2023-07-13T06:33:56;13.50;;;3.15;;
75234;SDS011;63817;51.228;-1.472;2023-07-13T06:36:22;8.95;;;2.80;;
75234;SDS011;63817;51.228;-1.472;2023-07-13T06:38:47;8.55;;;2.55;;
75234;SDS011;63817;51.228;-1.472;2023-07-13T06:41:12;9.13;;;2.47;;
75234;SDS011;63817;51.228;-1.472;2023-07-13T06:43:38;8.52;;;2.35;;
75234;SDS011;63817;51.228;-1.472;2023-07-13T06:46:03;10.30;;;2.72;;
75234;SDS011;63817;51.228;-1.472;2023-07-13T06:48:29;10.68;;;2.67;;
75234;SDS011;63817;51.228;-1.472;2023-07-13T06:50:54;9.65;;;2.85;;
75234;SDS011;63817;51.228;-1.472;2023-07-13T06:53:20;8.98;;;2.38;;
75234;SDS011;63817;51.228;-1.472;2023-07-13T06:55:46;10.57;;;2.20;;
75234;SDS011;63817;51.228;-1.472;2023-07-13T06:58:12;10.05;;;2.97;;
75234;SDS011;63817;51.228;-1.472;2023-07-13T07:00:37;10.52;;;2.58;;
75234;SDS011;63817;51.228;-1.472;2023-07-13T07:03:05;8.07;;;2.97;;
75234;SDS011;63817;51.228;-1.472;2023-07-13T07:05:30;8.85;;;3.05;;
75234;SDS011;63817;51.228;-1.472;2023-07-13T07:07:56;9.10;;;2.67;;
75234;SDS011;63817;51.228;-1.472;2023-07-13T07:10:21;8.18;;;2.63;;
75234;SDS011;63817;51.228;-1.472;2023-07-13T07:12:47;10.98;;;2.30;;
75234;SDS011;63817;51.228;-1.472;2023-07-13T07:15:12;7.13;;;2.05;;
75234;SDS011;63817;51.228;-1.472;2023-07-13T07:17:38;8.10;;;2.63;;
75234;SDS011;63817;51.228;-1.472;2023-07-13T07:20:04;5.53;;;2.25;;
75234;SDS011;63817;51.228;-1.472;2023-07-13T07:22:30;8.10;;;2.38;;
75234;SDS011;63817;51.228;-1.472;2023-07-13T07:24:56;13.05;;;2.65;;
75234;SDS011;63817;51.228;-1.472;2023-07-13T07:27:22;14.10;;;2.53;;
75234;SDS011;63817;51.228;-1.472;2023-07-13T07:29:48;5.85;;;2.58;;
75234;SDS011;63817;51.228;-1.472;2023-07-13T07:32:14;7.20;;;2.35;;
75234;SDS011;63817;51.228;-1.472;2023-07-13T07:34:39;10.75;;;2.47;;
75234;SDS011;63817;51.228;-1.472;2023-07-13T07:37:05;7.45;;;2.33;;
75234;SDS011;63817;51.228;-1.472;2023-07-13T07:39:30;7.22;;;2.35;;
75234;SDS011;63817;51.228;-1.472;2023-07-13T07:41:56;6.68;;;2.05;;
75234;SDS011;63817;51.228;-1.472;2023-07-13T07:44:22;12.20;;;2.78;;
75234;SDS011;63817;51.228;-1.472;2023-07-13T07:46:47;7.57;;;2.40;;
75234;SDS011;63817;51.228;-1.472;2023-07-13T07:49:13;6.97;;;2.10;;
75234;SDS011;63817;51.228;-1.472;2023-07-13T07:51:38;4.90;;;1.98;;
75234;SDS011;63817;51.228;-1.472;2023-07-13T07:54:04;5.38;;;1.50;;
75234;SDS011;63817;51.228;-1.472;2023-07-13T07:56:30;9.18;;;2.28;;
75234;SDS011;63817;51.228;-1.472;2023-07-13T07:58:56;8.55;;;2.03;;
75234;SDS011;63817;51.228;-1.472;2023-07-13T08:01:21;7.55;;;1.60;;
75234;SDS011;63817;51.228;-1.472;2023-07-13T08:03:47;7.10;;;2.00;;
75234;SDS011;63817;51.228;-1.472;2023-07-13T08:06:12;6.10;;;2.17;;
75234;SDS011;63817;51.228;-1.472;2023-07-13T08:08:38;7.25;;;1.95;;
75234;SDS011;63817;51.228;-1.472;2023-07-13T08:11:04;7.57;;;2.13;;
75234;SDS011;63817;51.228;-1.472;2023-07-13T08:13:32;5.80;;;2.03;;
75234;SDS011;63817;51.228;-1.472;2023-07-13T08:15:58;3.92;;;1.50;;
75234;SDS011;63817;51.228;-1.472;2023-07-13T08:18:23;7.15;;;1.90;;
75234;SDS011;63817;51.228;-1.472;2023-07-13T08:20:49;7.78;;;1.88;;
75234;SDS011;63817;51.228;-1.472;2023-07-13T08:23:14;10.52;;;2.03;;
75234;SDS011;63817;51.228;-1.472;2023-07-13T08:25:41;5.50;;;1.88;;
75234;SDS011;63817;51.228;-1.472;2023-07-13T08:28:07;11.90;;;2.60;;
75234;SDS011;63817;51.228;-1.472;2023-07-13T08:30:32;8.43;;;2.70;;
75234;SDS011;63817;51.228;-1.472;2023-07-13T08:32:58;6.15;;;2.05;;
75234;SDS011;63817;51.228;-1.472;2023-07-13T08:35:23;5.53;;;2.00;;
75234;SDS011;63817;51.228;-1.472;2023-07-13T08:37:50;9.45;;;2.17;;
75234;SDS011;63817;51.228;-1.472;2023-07-13T08:40:16;7.50;;;1.92;;
75234;SDS011;63817;51.228;-1.472;2023-07-13T08:42:44;5.55;;;2.03;;
75234;SDS011;63817;51.228;-1.472;2023-07-13T08:47:52;5.72;;;2.25;;
75234;SDS011;63817;51.228;-1.472;2023-07-13T08:50:21;9.85;;;2.60;;
75234;SDS011;63817;51.228;-1.472;2023-07-13T08:52:51;9.60;;;2.25;;
75234;SDS011;63817;51.228;-1.472;2023-07-13T08:55:20;2.50;;;1.55;;
75234;SDS011;63817;51.228;-1.472;2023-07-13T08:57:48;3.97;;;1.73;;
75234;SDS011;63817;51.228;-1.472;2023-07-13T09:00:18;6.65;;;2.10;;
75234;SDS011;63817;51.228;-1.472;2023-07-13T09:02:56;7.88;;;2.35;;
75234;SDS011;63817;51.228;-1.472;2023-07-13T09:10:44;3.67;;;1.80;;
75234;SDS011;63817;51.228;-1.472;2023-07-13T09:15:51;10.02;;;2.08;;
75234;SDS011;63817;51.228;-1.472;2023-07-13T09:18:28;10.18;;;1.95;;
75234;SDS011;63817;51.228;-1.472;2023-07-13T09:20:59;7.68;;;1.85;;
75234;SDS011;63817;51.228;-1.472;2023-07-13T09:23:28;5.97;;;1.88;;
75234;SDS011;63817;51.228;-1.472;2023-07-13T09:26:05;7.20;;;2.35;;
75234;SDS011;63817;51.228;-1.472;2023-07-13T09:28:38;6.80;;;1.98;;
75234;SDS011;63817;51.228;-1.472;2023-07-13T09:33:40;3.83;;;1.30;;
75234;SDS011;63817;51.228;-1.472;2023-07-13T09:36:27;10.50;;;2.25;;
75234;SDS011;63817;51.228;-1.472;2023-07-13T09:39:02;4.20;;;1.58;;
75234;SDS011;63817;51.228;-1.472;2023-07-13T09:44:36;7.35;;;1.98;;
75234;SDS011;63817;51.228;-1.472;2023-07-13T09:47:02;3.90;;;1.52;;
75234;SDS011;63817;51.228;-1.472;2023-07-13T09:49:29;4.88;;;1.48;;
75234;SDS011;63817;51.228;-1.472;2023-07-13T09:51:59;4.80;;;1.52;;
75234;SDS011;63817;51.228;-1.472;2023-07-13T09:54:27;4.60;;;1.50;;
75234;SDS011;63817;51.228;-1.472;2023-07-13T09:56:59;5.78;;;1.60;;
75234;SDS011;63817;51.228;-1.472;2023-07-13T09:59:33;4.88;;;2.10;;
75234;SDS011;63817;51.228;-1.472;2023-07-13T10:01:59;3.53;;;1.60;;
75234;SDS011;63817;51.228;-1.472;2023-07-13T10:04:30;3.55;;;1.60;;
75234;SDS011;63817;51.228;-1.472;2023-07-13T10:07:08;2.25;;;1.27;;
75234;SDS011;63817;51.228;-1.472;2023-07-13T10:09:36;3.28;;;1.40;;
75234;SDS011;63817;51.228;-1.472;2023-07-13T10:12:03;4.97;;;1.50;;
75234;SDS011;63817;51.228;-1.472;2023-07-13T10:14:30;3.15;;;1.58;;
75234;SDS011;63817;51.228;-1.472;2023-07-13T10:16:59;7.22;;;1.90;;
75234;SDS011;63817;51.228;-1.472;2023-07-13T10:19:29;4.50;;;1.13;;
75234;SDS011;63817;51.228;-1.472;2023-07-13T10:22:43;9.20;;;2.00;;
75234;SDS011;63817;51.228;-1.472;2023-07-13T10:24:52;2.00;;;1.35;;
75234;SDS011;63817;51.228;-1.472;2023-07-13T10:27:19;3.45;;;1.20;;
75234;SDS011;63817;51.228;-1.472;2023-07-13T10:32:34;5.07;;;1.83;;
75234;SDS011;63817;51.228;-1.472;2023-07-13T10:35:01;10.48;;;1.92;;
75234;SDS011;63817;51.228;-1.472;2023-07-13T10:37:29;4.13;;;1.52;;
75234;SDS011;63817;51.228;-1.472;2023-07-13T10:40:01;3.47;;;1.92;;
75234;SDS011;63817;51.228;-1.472;2023-07-13T10:42:30;6.18;;;1.70;;
75234;SDS011;63817;51.228;-1.472;2023-07-13T10:45:00;4.40;;;1.55;;
75234;SDS011;63817;51.228;-1.472;2023-07-13T10:47:26;2.10;;;1.55;;
75234;SDS011;63817;51.228;-1.472;2023-07-13T10:49:54;5.38;;;1.60;;
75234;SDS011;63817;51.228;-1.472;2023-07-13T10:58:02;3.95;;;1.25;;
75234;SDS011;63817;51.228;-1.472;2023-07-13T11:00:31;5.07;;;1.40;;
75234;SDS011;63817;51.228;-1.472;2023-07-13T11:02:59;12.52;;;1.70;;
75234;SDS011;63817;51.228;-1.472;2023-07-13T11:05:30;8.63;;;1.50;;
75234;SDS011;63817;51.228;-1.472;2023-07-13T11:08:12;4.65;;;1.33;;
75234;SDS011;63817;51.228;-1.472;2023-07-13T11:10:54;2.55;;;1.30;;
75234;SDS011;63817;51.228;-1.472;2023-07-13T11:18:41;5.15;;;1.40;;
75234;SDS011;63817;51.228;-1.472;2023-07-13T11:21:13;3.15;;;1.30;;
75234;SDS011;63817;51.228;-1.472;2023-07-13T11:23:43;4.03;;;1.45;;
75234;SDS011;63817;51.228;-1.472;2023-07-13T11:31:40;3.30;;;1.30;;
75234;SDS011;63817;51.228;-1.472;2023-07-13T11:34:15;2.17;;;1.33;;
75234;SDS011;63817;51.228;-1.472;2023-07-13T11:36:42;4.03;;;1.58;;
75234;SDS011;63817;51.228;-1.472;2023-07-13T11:41:43;4.68;;;2.03;;
75234;SDS011;63817;51.228;-1.472;2023-07-13T11:44:14;2.47;;;1.23;;
75234;SDS011;63817;51.228;-1.472;2023-07-13T11:46:46;3.78;;;1.42;;
75234;SDS011;63817;51.228;-1.472;2023-07-13T11:49:17;2.10;;;1.30;;
75234;SDS011;63817;51.228;-1.472;2023-07-13T11:51:43;8.50;;;2.03;;
75234;SDS011;63817;51.228;-1.472;2023-07-13T11:54:19;2.83;;;1.42;;
75234;SDS011;63817;51.228;-1.472;2023-07-13T11:56:48;2.83;;;1.17;;
75234;SDS011;63817;51.228;-1.472;2023-07-13T11:59:14;5.78;;;1.48;;
75234;SDS011;63817;51.228;-1.472;2023-07-13T12:01:43;2.38;;;1.40;;
75234;SDS011;63817;51.228;-1.472;2023-07-13T12:04:19;2.90;;;1.42;;
75234;SDS011;63817;51.228;-1.472;2023-07-13T12:06:53;3.10;;;1.65;;
75234;SDS011;63817;51.228;-1.472;2023-07-13T12:09:20;6.68;;;1.75;;
75234;SDS011;63817;51.228;-1.472;2023-07-13T12:11:50;3.22;;;1.70;;
75234;SDS011;63817;51.228;-1.472;2023-07-13T12:14:16;5.05;;;2.05;;
75234;SDS011;63817;51.228;-1.472;2023-07-13T12:16:43;6.85;;;2.13;;
75234;SDS011;63817;51.228;-1.472;2023-07-13T12:19:17;4.22;;;1.63;;
75234;SDS011;63817;51.228;-1.472;2023-07-13T12:21:46;8.18;;;2.30;;
75234;SDS011;63817;51.228;-1.472;2023-07-13T12:24:15;5.55;;;2.47;;
75234;SDS011;63817;51.228;-1.472;2023-07-13T12:26:41;16.58;;;3.25;;
75234;SDS011;63817;51.228;-1.472;2023-07-13T12:29:07;5.68;;;2.10;;
75234;SDS011;63817;51.228;-1.472;2023-07-13T12:34:07;5.82;;;2.47;;
75234;SDS011;63817;51.228;-1.472;2023-07-13T12:36:34;6.43;;;2.30;;
75234;SDS011;63817;51.228;-1.472;2023-07-13T12:39:04;6.68;;;2.30;;
75234;SDS011;63817;51.228;-1.472;2023-07-13T12:41:39;5.13;;;2.17;;
75234;SDS011;63817;51.228;-1.472;2023-07-13T12:44:09;6.80;;;2.30;;
75234;SDS011;63817;51.228;-1.472;2023-07-13T12:46:36;6.20;;;2.50;;
75234;SDS011;63817;51.228;-1.472;2023-07-13T12:49:05;5.40;;;2.22;;
75234;SDS011;63817;51.228;-1.472;2023-07-13T12:51:32;5.38;;;2.20;;
75234;SDS011;63817;51.228;-1.472;2023-07-13T12:54:12;6.35;;;2.15;;
75234;SDS011;63817;51.228;-1.472;2023-07-13T12:56:40;7.13;;;2.75;;
75234;SDS011;63817;51.228;-1.472;2023-07-13T12:59:08;5.32;;;2.47;;
75234;SDS011;63817;51.228;-1.472;2023-07-13T13:01:44;6.90;;;2.22;;
75234;SDS011;63817;51.228;-1.472;2023-07-13T13:04:11;6.95;;;2.88;;
75234;SDS011;63817;51.228;-1.472;2023-07-13T13:06:38;5.10;;;2.22;;
75234;SDS011;63817;51.228;-1.472;2023-07-13T13:09:06;8.43;;;2.70;;
75234;SDS011;63817;51.228;-1.472;2023-07-13T13:11:36;10.80;;;2.80;;
75234;SDS011;63817;51.228;-1.472;2023-07-13T13:14:02;9.18;;;3.40;;
75234;SDS011;63817;51.228;-1.472;2023-07-13T13:16:30;8.43;;;2.60;;
75234;SDS011;63817;51.228;-1.472;2023-07-13T13:19:16;6.05;;;2.55;;
75234;SDS011;63817;51.228;-1.472;2023-07-13T13:21:43;7.35;;;2.67;;
75234;SDS011;63817;51.228;-1.472;2023-07-13T13:24:11;6.18;;;2.60;;
75234;SDS011;63817;51.228;-1.472;2023-07-13T13:26:36;9.75;;;2.75;;
75234;SDS011;63817;51.228;-1.472;2023-07-13T13:29:04;14.50;;;4.80;;
75234;SDS011;63817;51.228;-1.472;2023-07-13T13:31:38;16.88;;;3.58;;
75234;SDS011;63817;51.228;-1.472;2023-07-13T13:34:04;15.50;;;4.18;;
75234;SDS011;63817;51.228;-1.472;2023-07-13T13:36:33;10.23;;;3.75;;
75234;SDS011;63817;51.228;-1.472;2023-07-13T13:38:59;10.55;;;4.13;;
75234;SDS011;63817;51.228;-1.472;2023-07-13T13:41:26;9.00;;;4.20;;
75234;SDS011;63817;51.228;-1.472;2023-07-13T13:43:52;13.90;;;4.80;;
75234;SDS011;63817;51.228;-1.472;2023-07-13T13:46:21;9.73;;;4.88;;
75234;SDS011;63817;51.228;-1.472;2023-07-13T13:48:50;15.43;;;5.28;;
75234;SDS011;63817;51.228;-1.472;2023-07-13T13:51:19;12.77;;;4.97;;
75234;SDS011;63817;51.228;-1.472;2023-07-13T13:53:46;10.98;;;4.22;;
75234;SDS011;63817;51.228;-1.472;2023-07-13T13:56:12;8.65;;;4.32;;
75234;SDS011;63817;51.228;-1.472;2023-07-13T13:58:38;11.20;;;3.88;;
75234;SDS011;63817;51.228;-1.472;2023-07-13T14:01:04;14.65;;;4.22;;
75234;SDS011;63817;51.228;-1.472;2023-07-13T14:03:33;10.05;;;3.80;;
75234;SDS011;63817;51.228;-1.472;2023-07-13T14:05:59;9.38;;;4.18;;
75234;SDS011;63817;51.228;-1.472;2023-07-13T14:08:24;11.70;;;2.80;;
75234;SDS011;63817;51.228;-1.472;2023-07-13T14:10:51;7.32;;;3.55;;
75234;SDS011;63817;51.228;-1.472;2023-07-13T14:13:20;9.45;;;3.28;;
75234;SDS011;63817;51.228;-1.472;2023-07-13T14:15:47;9.35;;;3.55;;
75234;SDS011;63817;51.228;-1.472;2023-07-13T14:18:13;6.57;;;3.13;;
75234;SDS011;63817;51.228;-1.472;2023-07-13T14:20:43;8.60;;;3.33;;
75234;SDS011;63817;51.228;-1.472;2023-07-13T14:23:09;7.18;;;2.85;;
75234;SDS011;63817;51.228;-1.472;2023-07-13T14:25:34;7.13;;;3.28;;
75234;SDS011;63817;51.228;-1.472;2023-07-13T14:28:04;9.15;;;3.00;;
75234;SDS011;63817;51.228;-1.472;2023-07-13T14:30:42;12.63;;;3.33;;
75234;SDS011;63817;51.228;-1.472;2023-07-13T14:33:08;4.85;;;2.55;;
75234;SDS011;63817;51.228;-1.472;2023-07-13T14:35:35;7.90;;;2.75;;
75234;SDS011;63817;51.228;-1.472;2023-07-13T14:38:02;7.95;;;2.90;;
75234;SDS011;63817;51.228;-1.472;2023-07-13T14:40:28;7.72;;;3.08;;
75234;SDS011;63817;51.228;-1.472;2023-07-13T14:42:55;7.35;;;2.78;;
75234;SDS011;63817;51.228;-1.472;2023-07-13T14:45:20;6.93;;;2.03;;
75234;SDS011;63817;51.228;-1.472;2023-07-13T14:47:46;2.70;;;1.83;;
75234;SDS011;63817;51.228;-1.472;2023-07-13T14:50:16;3.33;;;2.22;;
75234;SDS011;63817;51.228;-1.472;2023-07-13T14:52:43;5.40;;;2.13;;
75234;SDS011;63817;51.228;-1.472;2023-07-13T14:55:12;5.43;;;2.88;;
75234;SDS011;63817;51.228;-1.472;2023-07-13T14:57:39;4.63;;;1.60;;
75234;SDS011;63817;51.228;-1.472;2023-07-13T15:00:21;5.13;;;2.30;;
75234;SDS011;63817;51.228;-1.472;2023-07-13T15:02:49;5.53;;;2.15;;
75234;SDS011;63817;51.228;-1.472;2023-07-13T15:05:17;5.40;;;2.00;;
75234;SDS011;63817;51.228;-1.472;2023-07-13T15:07:44;4.25;;;1.88;;
75234;SDS011;63817;51.228;-1.472;2023-07-13T15:10:17;4.80;;;2.13;;
75234;SDS011;63817;51.228;-1.472;2023-07-13T15:12:47;2.60;;;1.30;;
75234;SDS011;63817;51.228;-1.472;2023-07-13T15:15:13;1.85;;;1.13;;
75234;SDS011;63817;51.228;-1.472;2023-07-13T15:17:40;2.15;;;1.20;;
75234;SDS011;63817;51.228;-1.472;2023-07-13T15:20:26;2.72;;;1.23;;
75234;SDS011;63817;51.228;-1.472;2023-07-13T15:22:52;2.13;;;1.58;;